sensor_id;sensor_type;location;lat;lon;timestamp;temperature;humidity
40151;DHT22;25866;52.420;10.640;2023-09-07T00:00:30;17.40;99.90
40151;DHT22;25866;52.420;10.640;2023-09-07T00:02:56;17.40;99.90
40151;DHT22;25866;52.420;10.640;2023-09-07T00:05:21;17.30;99.90
40151;DHT22;25866;52.420;10.640;2023-09-07T00:07:47;17.30;99.90
40151;DHT22;25866;52.420;10.640;2023-09-07T00:10:14;17.20;99.90
40151;DHT22;25866;52.420;10.640;2023-09-07T00:12:40;17.20;99.90
40151;DHT22;25866;52.420;10.640;2023-09-07T00:15:07;17.10;99.90
40151;DHT22;25866;52.420;10.640;2023-09-07T00:17:36;17.00;99.90
40151;DHT22;25866;52.420;10.640;2023-09-07T00:20:02;17.00;99.90
40151;DHT22;25866;52.420;10.640;2023-09-07T00:22:40;17.00;99.90
40151;DHT22;25866;52.420;10.640;2023-09-07T00:25:06;17.00;99.90
40151;DHT22;25866;52.420;10.640;2023-09-07T00:27:33;17.00;99.90
40151;DHT22;25866;52.420;10.640;2023-09-07T00:30:00;17.00;99.90
40151;DHT22;25866;52.420;10.640;2023-09-07T00:32:26;16.90;99.90
40151;DHT22;25866;52.420;10.640;2023-09-07T00:34:51;16.80;99.90
40151;DHT22;25866;52.420;10.640;2023-09-07T00:37:17;16.70;99.90
40151;DHT22;25866;52.420;10.640;2023-09-07T00:39:43;16.70;99.90
40151;DHT22;25866;52.420;10.640;2023-09-07T00:42:09;16.70;99.90
40151;DHT22;25866;52.420;10.640;2023-09-07T00:44:35;16.60;99.90
40151;DHT22;25866;52.420;10.640;2023-09-07T00:47:01;16.60;99.90
40151;DHT22;25866;52.420;10.640;2023-09-07T00:49:27;16.60;99.90
40151;DHT22;25866;52.420;10.640;2023-09-07T00:51:53;16.50;99.90
40151;DHT22;25866;52.420;10.640;2023-09-07T00:54:19;16.50;99.90
40151;DHT22;25866;52.420;10.640;2023-09-07T00:56:45;16.40;99.90
40151;DHT22;25866;52.420;10.640;2023-09-07T00:59:11;16.40;99.90
40151;DHT22;25866;52.420;10.640;2023-09-07T01:01:38;16.50;99.90
40151;DHT22;25866;52.420;10.640;2023-09-07T01:04:04;16.50;99.90
40151;DHT22;25866;52.420;10.640;2023-09-07T01:06:36;16.50;99.90
40151;DHT22;25866;52.420;10.640;2023-09-07T01:09:10;16.50;99.90
40151;DHT22;25866;52.420;10.640;2023-09-07T01:11:38;16.60;99.90
40151;DHT22;25866;52.420;10.640;2023-09-07T01:14:04;16.70;99.90
40151;DHT22;25866;52.420;10.640;2023-09-07T01:16:31;16.70;99.90
40151;DHT22;25866;52.420;10.640;2023-09-07T01:19:01;16.70;99.90
40151;DHT22;25866;52.420;10.640;2023-09-07T01:21:34;16.60;99.90
40151;DHT22;25866;52.420;10.640;2023-09-07T01:24:01;16.60;99.90
40151;DHT22;25866;52.420;10.640;2023-09-07T01:26:28;16.60;99.90
40151;DHT22;25866;52.420;10.640;2023-09-07T01:28:54;16.50;99.90
40151;DHT22;25866;52.420;10.640;2023-09-07T01:31:20;16.50;99.90
40151;DHT22;25866;52.420;10.640;2023-09-07T01:33:45;16.50;99.90
40151;DHT22;25866;52.420;10.640;2023-09-07T01:36:11;16.40;99.90
40151;DHT22;25866;52.420;10.640;2023-09-07T01:38:42;16.30;99.90
40151;DHT22;25866;52.420;10.640;2023-09-07T01:41:07;16.30;99.90
40151;DHT22;25866;52.420;10.640;2023-09-07T01:43:33;16.10;99.90
40151;DHT22;25866;52.420;10.640;2023-09-07T01:45:59;16.10;99.90
40151;DHT22;25866;52.420;10.640;2023-09-07T01:48:27;16.10;99.90
40151;DHT22;25866;52.420;10.640;2023-09-07T01:50:53;16.10;99.90
40151;DHT22;25866;52.420;10.640;2023-09-07T01:53:19;16.20;99.90
40151;DHT22;25866;52.420;10.640;2023-09-07T01:55:45;16.30;99.90
40151;DHT22;25866;52.420;10.640;2023-09-07T01:58:18;16.30;99.90
40151;DHT22;25866;52.420;10.640;2023-09-07T02:00:44;16.30;99.90
40151;DHT22;25866;52.420;10.640;2023-09-07T02:03:09;16.30;99.90
40151;DHT22;25866;52.420;10.640;2023-09-07T02:05:36;16.30;99.90
40151;DHT22;25866;52.420;10.640;2023-09-07T02:08:05;16.40;99.90
40151;DHT22;25866;52.420;10.640;2023-09-07T02:10:31;16.40;99.90
40151;DHT22;25866;52.420;10.640;2023-09-07T02:12:57;16.40;99.90
40151;DHT22;25866;52.420;10.640;2023-09-07T02:15:23;16.40;99.90
40151;DHT22;25866;52.420;10.640;2023-09-07T02:17:49;16.40;99.90
40151;DHT22;25866;52.420;10.640;2023-09-07T02:20:15;16.40;99.90
40151;DHT22;25866;52.420;10.640;2023-09-07T02:22:40;16.40;99.90
40151;DHT22;25866;52.420;10.640;2023-09-07T02:25:06;16.40;99.90
40151;DHT22;25866;52.420;10.640;2023-09-07T02:27:35;16.40;99.90
40151;DHT22;25866;52.420;10.640;2023-09-07T02:30:03;16.30;99.90
40151;DHT22;25866;52.420;10.640;2023-09-07T02:32:29;16.30;99.90
40151;DHT22;25866;52.420;10.640;2023-09-07T02:34:55;16.40;99.90
40151;DHT22;25866;52.420;10.640;2023-09-07T02:37:22;16.40;99.90
40151;DHT22;25866;52.420;10.640;2023-09-07T02:39:47;16.40;99.90
40151;DHT22;25866;52.420;10.640;2023-09-07T02:42:13;16.40;99.90
40151;DHT22;25866;52.420;10.640;2023-09-07T02:44:39;16.50;99.90
40151;DHT22;25866;52.420;10.640;2023-09-07T02:47:04;16.60;99.90
40151;DHT22;25866;52.420;10.640;2023-09-07T02:49:43;16.60;99.90
40151;DHT22;25866;52.420;10.640;2023-09-07T02:52:09;16.70;99.90
40151;DHT22;25866;52.420;10.640;2023-09-07T02:54:35;16.70;99.90
40151;DHT22;25866;52.420;10.640;2023-09-07T02:57:00;16.70;99.90
40151;DHT22;25866;52.420;10.640;2023-09-07T02:59:31;16.60;99.90
40151;DHT22;25866;52.420;10.640;2023-09-07T03:01:57;16.70;99.90
40151;DHT22;25866;52.420;10.640;2023-09-07T03:04:22;16.70;99.90
40151;DHT22;25866;52.420;10.640;2023-09-07T03:06:49;16.50;99.90
40151;DHT22;25866;52.420;10.640;2023-09-07T03:09:16;16.40;99.90
40151;DHT22;25866;52.420;10.640;2023-09-07T03:11:42;16.30;99.90
40151;DHT22;25866;52.420;10.640;2023-09-07T03:14:08;16.20;99.90
40151;DHT22;25866;52.420;10.640;2023-09-07T03:16:33;16.20;99.90
40151;DHT22;25866;52.420;10.640;2023-09-07T03:19:01;16.10;99.90
40151;DHT22;25866;52.420;10.640;2023-09-07T03:21:28;16.00;99.90
40151;DHT22;25866;52.420;10.640;2023-09-07T03:23:56;16.00;99.90
40151;DHT22;25866;52.420;10.640;2023-09-07T03:26:21;15.90;99.90
40151;DHT22;25866;52.420;10.640;2023-09-07T03:28:50;15.80;99.90
40151;DHT22;25866;52.420;10.640;2023-09-07T03:31:17;15.80;99.90
40151;DHT22;25866;52.420;10.640;2023-09-07T03:33:42;15.80;99.90
40151;DHT22;25866;52.420;10.640;2023-09-07T03:36:08;15.80;99.90
40151;DHT22;25866;52.420;10.640;2023-09-07T03:38:36;15.90;99.90
40151;DHT22;25866;52.420;10.640;2023-09-07T03:41:02;15.90;99.90
40151;DHT22;25866;52.420;10.640;2023-09-07T03:43:27;16.00;99.90
40151;DHT22;25866;52.420;10.640;2023-09-07T03:45:53;16.00;99.90
40151;DHT22;25866;52.420;10.640;2023-09-07T03:48:23;15.90;99.90
40151;DHT22;25866;52.420;10.640;2023-09-07T03:50:48;15.90;99.90
40151;DHT22;25866;52.420;10.640;2023-09-07T03:53:14;15.90;99.90
40151;DHT22;25866;52.420;10.640;2023-09-07T03:55:44;15.90;99.90
40151;DHT22;25866;52.420;10.640;2023-09-07T03:58:12;15.80;99.90
40151;DHT22;25866;52.420;10.640;2023-09-07T04:00:39;15.80;99.90
40151;DHT22;25866;52.420;10.640;2023-09-07T04:03:06;15.90;99.90
40151;DHT22;25866;52.420;10.640;2023-09-07T04:05:32;15.90;99.90
40151;DHT22;25866;52.420;10.640;2023-09-07T04:08:00;15.80;99.90
40151;DHT22;25866;52.420;10.640;2023-09-07T04:10:28;15.80;99.90
40151;DHT22;25866;52.420;10.640;2023-09-07T04:12:53;15.80;99.90
40151;DHT22;25866;52.420;10.640;2023-09-07T04:15:19;15.80;99.90
40151;DHT22;25866;52.420;10.640;2023-09-07T04:17:45;15.70;99.90
40151;DHT22;25866;52.420;10.640;2023-09-07T04:20:13;15.70;99.90
40151;DHT22;25866;52.420;10.640;2023-09-07T04:22:39;15.70;99.90
40151;DHT22;25866;52.420;10.640;2023-09-07T04:25:06;15.70;99.90
40151;DHT22;25866;52.420;10.640;2023-09-07T04:27:31;15.70;99.90
40151;DHT22;25866;52.420;10.640;2023-09-07T04:29:59;15.60;99.90
40151;DHT22;25866;52.420;10.640;2023-09-07T04:32:25;15.50;99.90
40151;DHT22;25866;52.420;10.640;2023-09-07T04:34:56;15.30;99.90
40151;DHT22;25866;52.420;10.640;2023-09-07T04:37:22;15.30;99.90
40151;DHT22;25866;52.420;10.640;2023-09-07T04:39:51;15.30;99.90
40151;DHT22;25866;52.420;10.640;2023-09-07T04:42:18;15.40;99.90
40151;DHT22;25866;52.420;10.640;2023-09-07T04:44:44;15.40;99.90
40151;DHT22;25866;52.420;10.640;2023-09-07T04:47:10;15.30;99.90
40151;DHT22;25866;52.420;10.640;2023-09-07T04:49:36;15.30;99.90
40151;DHT22;25866;52.420;10.640;2023-09-07T04:52:02;15.30;99.90
40151;DHT22;25866;52.420;10.640;2023-09-07T04:54:28;15.40;99.90
40151;DHT22;25866;52.420;10.640;2023-09-07T04:56:54;15.40;99.90
40151;DHT22;25866;52.420;10.640;2023-09-07T04:59:20;15.40;99.90
40151;DHT22;25866;52.420;10.640;2023-09-07T05:01:46;15.50;99.90
40151;DHT22;25866;52.420;10.640;2023-09-07T05:04:12;15.50;99.90
40151;DHT22;25866;52.420;10.640;2023-09-07T05:06:37;15.50;99.90
40151;DHT22;25866;52.420;10.640;2023-09-07T05:09:07;15.50;99.90
40151;DHT22;25866;52.420;10.640;2023-09-07T05:11:32;15.40;99.90
40151;DHT22;25866;52.420;10.640;2023-09-07T05:14:02;15.40;99.90
40151;DHT22;25866;52.420;10.640;2023-09-07T05:16:28;15.40;99.90
40151;DHT22;25866;52.420;10.640;2023-09-07T05:18:58;15.40;99.90
40151;DHT22;25866;52.420;10.640;2023-09-07T05:21:23;15.50;99.90
40151;DHT22;25866;52.420;10.640;2023-09-07T05:23:49;15.60;99.90
40151;DHT22;25866;52.420;10.640;2023-09-07T05:26:21;15.60;99.90
40151;DHT22;25866;52.420;10.640;2023-09-07T05:28:54;15.70;99.90
40151;DHT22;25866;52.420;10.640;2023-09-07T05:31:19;15.80;99.90
40151;DHT22;25866;52.420;10.640;2023-09-07T05:33:45;15.80;99.90
40151;DHT22;25866;52.420;10.640;2023-09-07T05:36:10;15.90;99.90
40151;DHT22;25866;52.420;10.640;2023-09-07T05:38:36;16.00;99.90
40151;DHT22;25866;52.420;10.640;2023-09-07T05:41:03;16.10;99.90
40151;DHT22;25866;52.420;10.640;2023-09-07T05:43:29;16.20;99.90
40151;DHT22;25866;52.420;10.640;2023-09-07T05:45:55;16.30;99.90
40151;DHT22;25866;52.420;10.640;2023-09-07T05:48:20;16.50;99.90
40151;DHT22;25866;52.420;10.640;2023-09-07T05:50:46;16.60;99.90
40151;DHT22;25866;52.420;10.640;2023-09-07T05:53:12;16.70;99.90
40151;DHT22;25866;52.420;10.640;2023-09-07T05:55:38;16.70;99.90
40151;DHT22;25866;52.420;10.640;2023-09-07T05:58:08;16.90;99.90
40151;DHT22;25866;52.420;10.640;2023-09-07T06:00:38;17.10;99.90
40151;DHT22;25866;52.420;10.640;2023-09-07T06:03:05;17.20;99.90
40151;DHT22;25866;52.420;10.640;2023-09-07T06:05:31;17.30;99.90
40151;DHT22;25866;52.420;10.640;2023-09-07T06:07:57;17.40;99.90
40151;DHT22;25866;52.420;10.640;2023-09-07T06:10:24;17.40;99.90
40151;DHT22;25866;52.420;10.640;2023-09-07T06:12:49;17.60;99.90
40151;DHT22;25866;52.420;10.640;2023-09-07T06:15:15;17.60;99.90
40151;DHT22;25866;52.420;10.640;2023-09-07T06:17:41;17.70;99.90
40151;DHT22;25866;52.420;10.640;2023-09-07T06:20:13;17.80;99.90
40151;DHT22;25866;52.420;10.640;2023-09-07T06:22:39;17.80;99.90
40151;DHT22;25866;52.420;10.640;2023-09-07T06:25:05;17.90;99.90
40151;DHT22;25866;52.420;10.640;2023-09-07T06:27:30;18.00;99.90
40151;DHT22;25866;52.420;10.640;2023-09-07T06:29:56;18.00;99.90
40151;DHT22;25866;52.420;10.640;2023-09-07T06:32:22;18.10;99.90
40151;DHT22;25866;52.420;10.640;2023-09-07T06:34:48;18.10;99.90
40151;DHT22;25866;52.420;10.640;2023-09-07T06:37:13;18.20;99.90
40151;DHT22;25866;52.420;10.640;2023-09-07T06:39:39;18.30;99.90
40151;DHT22;25866;52.420;10.640;2023-09-07T06:42:08;18.40;99.90
40151;DHT22;25866;52.420;10.640;2023-09-07T06:44:35;18.50;99.90
40151;DHT22;25866;52.420;10.640;2023-09-07T06:47:01;18.60;99.90
40151;DHT22;25866;52.420;10.640;2023-09-07T06:49:28;18.60;99.90
40151;DHT22;25866;52.420;10.640;2023-09-07T06:51:56;18.70;99.90
40151;DHT22;25866;52.420;10.640;2023-09-07T06:54:22;18.80;99.90
40151;DHT22;25866;52.420;10.640;2023-09-07T06:56:48;18.90;99.90
40151;DHT22;25866;52.420;10.640;2023-09-07T06:59:14;19.00;99.90
40151;DHT22;25866;52.420;10.640;2023-09-07T07:01:40;19.10;99.90
40151;DHT22;25866;52.420;10.640;2023-09-07T07:04:06;19.20;99.90
40151;DHT22;25866;52.420;10.640;2023-09-07T07:06:33;19.30;99.90
40151;DHT22;25866;52.420;10.640;2023-09-07T07:08:58;19.40;99.90
40151;DHT22;25866;52.420;10.640;2023-09-07T07:11:25;19.40;99.90
40151;DHT22;25866;52.420;10.640;2023-09-07T07:13:51;19.40;99.90
40151;DHT22;25866;52.420;10.640;2023-09-07T07:16:17;19.50;99.90
40151;DHT22;25866;52.420;10.640;2023-09-07T07:18:42;19.60;99.90
40151;DHT22;25866;52.420;10.640;2023-09-07T07:21:08;19.70;99.90
40151;DHT22;25866;52.420;10.640;2023-09-07T07:23:35;19.80;99.90
40151;DHT22;25866;52.420;10.640;2023-09-07T07:26:00;19.80;99.90
40151;DHT22;25866;52.420;10.640;2023-09-07T07:28:26;19.90;99.90
40151;DHT22;25866;52.420;10.640;2023-09-07T07:30:52;19.90;99.90
40151;DHT22;25866;52.420;10.640;2023-09-07T07:33:19;20.00;99.90
40151;DHT22;25866;52.420;10.640;2023-09-07T07:35:45;20.10;99.90
40151;DHT22;25866;52.420;10.640;2023-09-07T07:38:12;20.20;99.90
40151;DHT22;25866;52.420;10.640;2023-09-07T07:40:41;20.30;99.90
40151;DHT22;25866;52.420;10.640;2023-09-07T07:43:08;20.40;99.90
40151;DHT22;25866;52.420;10.640;2023-09-07T07:45:34;20.50;99.90
40151;DHT22;25866;52.420;10.640;2023-09-07T07:48:04;20.60;99.90
40151;DHT22;25866;52.420;10.640;2023-09-07T07:50:42;20.70;99.90
40151;DHT22;25866;52.420;10.640;2023-09-07T07:53:08;20.80;99.90
40151;DHT22;25866;52.420;10.640;2023-09-07T07:55:36;20.90;99.90
40151;DHT22;25866;52.420;10.640;2023-09-07T07:58:06;20.90;99.90
40151;DHT22;25866;52.420;10.640;2023-09-07T08:00:40;21.00;99.90
40151;DHT22;25866;52.420;10.640;2023-09-07T08:03:06;21.10;99.90
40151;DHT22;25866;52.420;10.640;2023-09-07T08:05:33;21.20;99.90
40151;DHT22;25866;52.420;10.640;2023-09-07T08:07:59;21.20;99.90
40151;DHT22;25866;52.420;10.640;2023-09-07T08:10:25;21.40;99.90
40151;DHT22;25866;52.420;10.640;2023-09-07T08:12:55;21.50;99.90
40151;DHT22;25866;52.420;10.640;2023-09-07T08:15:21;21.50;99.90
40151;DHT22;25866;52.420;10.640;2023-09-07T08:17:48;21.60;99.90
40151;DHT22;25866;52.420;10.640;2023-09-07T08:20:14;21.70;99.90
40151;DHT22;25866;52.420;10.640;2023-09-07T08:22:40;21.90;99.90
40151;DHT22;25866;52.420;10.640;2023-09-07T08:25:11;22.00;99.90
40151;DHT22;25866;52.420;10.640;2023-09-07T08:27:42;22.10;99.90
40151;DHT22;25866;52.420;10.640;2023-09-07T08:30:13;22.20;99.90
40151;DHT22;25866;52.420;10.640;2023-09-07T08:32:44;22.30;99.90
40151;DHT22;25866;52.420;10.640;2023-09-07T08:35:11;22.40;99.90
40151;DHT22;25866;52.420;10.640;2023-09-07T08:37:42;22.50;99.90
40151;DHT22;25866;52.420;10.640;2023-09-07T08:40:08;22.60;99.90
40151;DHT22;25866;52.420;10.640;2023-09-07T08:42:38;22.60;99.90
40151;DHT22;25866;52.420;10.640;2023-09-07T08:45:05;22.80;99.90
40151;DHT22;25866;52.420;10.640;2023-09-07T08:47:37;22.80;99.90
40151;DHT22;25866;52.420;10.640;2023-09-07T08:50:05;22.90;99.90
40151;DHT22;25866;52.420;10.640;2023-09-07T08:52:42;23.00;99.90
40151;DHT22;25866;52.420;10.640;2023-09-07T08:55:09;23.00;99.90
40151;DHT22;25866;52.420;10.640;2023-09-07T08:57:36;23.10;99.90
40151;DHT22;25866;52.420;10.640;2023-09-07T09:00:02;23.20;99.90
40151;DHT22;25866;52.420;10.640;2023-09-07T09:02:34;23.30;99.90
40151;DHT22;25866;52.420;10.640;2023-09-07T09:05:02;23.40;99.90
40151;DHT22;25866;52.420;10.640;2023-09-07T09:07:30;23.50;99.90
40151;DHT22;25866;52.420;10.640;2023-09-07T09:10:08;23.60;99.90
40151;DHT22;25866;52.420;10.640;2023-09-07T09:12:46;23.70;99.90
40151;DHT22;25866;52.420;10.640;2023-09-07T09:15:12;23.70;99.90
40151;DHT22;25866;52.420;10.640;2023-09-07T09:17:38;23.70;99.90
40151;DHT22;25866;52.420;10.640;2023-09-07T09:20:04;23.80;99.90
40151;DHT22;25866;52.420;10.640;2023-09-07T09:22:39;23.80;99.90
40151;DHT22;25866;52.420;10.640;2023-09-07T09:25:05;24.00;99.90
40151;DHT22;25866;52.420;10.640;2023-09-07T09:27:30;23.90;99.90
40151;DHT22;25866;52.420;10.640;2023-09-07T09:29:56;24.00;99.90
40151;DHT22;25866;52.420;10.640;2023-09-07T09:32:24;24.10;99.90
40151;DHT22;25866;52.420;10.640;2023-09-07T09:34:50;24.20;99.90
40151;DHT22;25866;52.420;10.640;2023-09-07T09:37:17;24.40;99.90
40151;DHT22;25866;52.420;10.640;2023-09-07T09:39:49;24.40;99.90
40151;DHT22;25866;52.420;10.640;2023-09-07T09:42:20;24.50;99.90
40151;DHT22;25866;52.420;10.640;2023-09-07T09:44:49;24.60;99.90
40151;DHT22;25866;52.420;10.640;2023-09-07T09:47:16;24.70;99.90
40151;DHT22;25866;52.420;10.640;2023-09-07T09:49:43;24.70;99.90
40151;DHT22;25866;52.420;10.640;2023-09-07T09:52:11;24.80;99.90
40151;DHT22;25866;52.420;10.640;2023-09-07T09:54:38;24.80;99.90
40151;DHT22;25866;52.420;10.640;2023-09-07T09:57:04;24.90;99.90
40151;DHT22;25866;52.420;10.640;2023-09-07T09:59:31;25.00;99.90
40151;DHT22;25866;52.420;10.640;2023-09-07T10:01:58;25.10;99.90
40151;DHT22;25866;52.420;10.640;2023-09-07T10:04:26;25.10;99.90
40151;DHT22;25866;52.420;10.640;2023-09-07T10:07:09;25.20;99.90
40151;DHT22;25866;52.420;10.640;2023-09-07T10:09:38;25.20;99.90
40151;DHT22;25866;52.420;10.640;2023-09-07T10:12:04;25.20;99.90
40151;DHT22;25866;52.420;10.640;2023-09-07T10:14:40;25.20;99.90
40151;DHT22;25866;52.420;10.640;2023-09-07T10:17:07;25.30;99.90
40151;DHT22;25866;52.420;10.640;2023-09-07T10:19:35;25.40;99.90
40151;DHT22;25866;52.420;10.640;2023-09-07T10:22:04;25.50;99.90
40151;DHT22;25866;52.420;10.640;2023-09-07T10:24:32;25.60;99.90
40151;DHT22;25866;52.420;10.640;2023-09-07T10:27:08;25.60;99.90
40151;DHT22;25866;52.420;10.640;2023-09-07T10:29:45;25.60;99.90
40151;DHT22;25866;52.420;10.640;2023-09-07T10:32:13;25.80;99.90
40151;DHT22;25866;52.420;10.640;2023-09-07T10:34:41;25.80;99.90
40151;DHT22;25866;52.420;10.640;2023-09-07T10:37:14;26.00;99.90
40151;DHT22;25866;52.420;10.640;2023-09-07T10:39:40;26.10;99.90
40151;DHT22;25866;52.420;10.640;2023-09-07T10:42:19;26.20;99.90
40151;DHT22;25866;52.420;10.640;2023-09-07T10:44:45;26.30;99.90
40151;DHT22;25866;52.420;10.640;2023-09-07T10:47:11;26.30;99.70
40151;DHT22;25866;52.420;10.640;2023-09-07T10:49:40;26.30;99.90
40151;DHT22;25866;52.420;10.640;2023-09-07T10:52:11;26.30;99.90
40151;DHT22;25866;52.420;10.640;2023-09-07T10:54:36;26.30;99.90
40151;DHT22;25866;52.420;10.640;2023-09-07T10:57:09;26.40;99.90
40151;DHT22;25866;52.420;10.640;2023-09-07T10:59:35;26.50;99.30
40151;DHT22;25866;52.420;10.640;2023-09-07T11:02:07;26.50;99.30
40151;DHT22;25866;52.420;10.640;2023-09-07T11:04:33;26.60;99.00
40151;DHT22;25866;52.420;10.640;2023-09-07T11:06:59;26.70;99.20
40151;DHT22;25866;52.420;10.640;2023-09-07T11:09:25;26.60;99.90
40151;DHT22;25866;52.420;10.640;2023-09-07T11:11:54;26.80;99.30
40151;DHT22;25866;52.420;10.640;2023-09-07T11:14:21;26.80;98.40
40151;DHT22;25866;52.420;10.640;2023-09-07T11:16:47;26.90;99.30
40151;DHT22;25866;52.420;10.640;2023-09-07T11:19:13;27.00;98.50
40151;DHT22;25866;52.420;10.640;2023-09-07T11:21:40;27.10;98.60
40151;DHT22;25866;52.420;10.640;2023-09-07T11:24:07;27.20;99.20
40151;DHT22;25866;52.420;10.640;2023-09-07T11:26:46;27.20;98.70
40151;DHT22;25866;52.420;10.640;2023-09-07T11:29:16;27.30;98.50
40151;DHT22;25866;52.420;10.640;2023-09-07T11:31:46;27.30;98.00
40151;DHT22;25866;52.420;10.640;2023-09-07T11:34:15;27.30;98.30
40151;DHT22;25866;52.420;10.640;2023-09-07T11:36:42;27.40;97.80
40151;DHT22;25866;52.420;10.640;2023-09-07T11:39:08;27.50;97.70
40151;DHT22;25866;52.420;10.640;2023-09-07T11:41:41;27.50;98.30
40151;DHT22;25866;52.420;10.640;2023-09-07T11:44:07;27.60;97.70
40151;DHT22;25866;52.420;10.640;2023-09-07T11:46:33;27.60;97.30
40151;DHT22;25866;52.420;10.640;2023-09-07T11:48:58;27.60;96.60
40151;DHT22;25866;52.420;10.640;2023-09-07T11:51:27;27.80;96.40
40151;DHT22;25866;52.420;10.640;2023-09-07T11:53:53;27.80;97.20
40151;DHT22;25866;52.420;10.640;2023-09-07T11:56:19;27.90;96.00
40151;DHT22;25866;52.420;10.640;2023-09-07T11:58:45;27.90;96.10
40151;DHT22;25866;52.420;10.640;2023-09-07T12:01:11;28.00;96.40
40151;DHT22;25866;52.420;10.640;2023-09-07T12:03:38;28.10;96.10
40151;DHT22;25866;52.420;10.640;2023-09-07T12:06:04;28.10;95.50
40151;DHT22;25866;52.420;10.640;2023-09-07T12:08:29;28.20;95.60
40151;DHT22;25866;52.420;10.640;2023-09-07T12:10:55;28.20;94.80
40151;DHT22;25866;52.420;10.640;2023-09-07T12:13:21;28.20;95.80
40151;DHT22;25866;52.420;10.640;2023-09-07T12:15:46;28.20;95.50
40151;DHT22;25866;52.420;10.640;2023-09-07T12:18:13;28.20;95.30
40151;DHT22;25866;52.420;10.640;2023-09-07T12:20:38;28.20;94.50
40151;DHT22;25866;52.420;10.640;2023-09-07T12:23:04;28.20;94.70
40151;DHT22;25866;52.420;10.640;2023-09-07T12:25:30;28.30;94.30
40151;DHT22;25866;52.420;10.640;2023-09-07T12:27:55;28.30;94.80
40151;DHT22;25866;52.420;10.640;2023-09-07T12:30:22;28.30;95.00
40151;DHT22;25866;52.420;10.640;2023-09-07T12:32:49;28.40;95.20
40151;DHT22;25866;52.420;10.640;2023-09-07T12:35:16;28.50;94.60
40151;DHT22;25866;52.420;10.640;2023-09-07T12:37:42;28.60;95.80
40151;DHT22;25866;52.420;10.640;2023-09-07T12:40:09;28.60;95.50
40151;DHT22;25866;52.420;10.640;2023-09-07T12:42:42;28.60;95.10
40151;DHT22;25866;52.420;10.640;2023-09-07T12:45:11;28.60;94.40
40151;DHT22;25866;52.420;10.640;2023-09-07T12:47:38;28.60;94.60
40151;DHT22;25866;52.420;10.640;2023-09-07T12:50:04;28.60;95.50
40151;DHT22;25866;52.420;10.640;2023-09-07T12:52:32;28.70;95.40
40151;DHT22;25866;52.420;10.640;2023-09-07T12:54:57;28.80;94.00
40151;DHT22;25866;52.420;10.640;2023-09-07T12:57:23;28.70;94.20
40151;DHT22;25866;52.420;10.640;2023-09-07T12:59:49;28.70;94.30
40151;DHT22;25866;52.420;10.640;2023-09-07T13:02:15;28.70;94.80
40151;DHT22;25866;52.420;10.640;2023-09-07T13:04:41;28.80;94.80
40151;DHT22;25866;52.420;10.640;2023-09-07T13:07:07;28.90;94.30
40151;DHT22;25866;52.420;10.640;2023-09-07T13:09:33;28.90;94.80
40151;DHT22;25866;52.420;10.640;2023-09-07T13:11:58;28.90;94.90
40151;DHT22;25866;52.420;10.640;2023-09-07T13:14:24;28.90;95.30
40151;DHT22;25866;52.420;10.640;2023-09-07T13:16:50;29.00;95.10
40151;DHT22;25866;52.420;10.640;2023-09-07T13:19:16;29.10;94.90
40151;DHT22;25866;52.420;10.640;2023-09-07T13:21:42;29.10;94.50
40151;DHT22;25866;52.420;10.640;2023-09-07T13:24:12;29.10;94.60
40151;DHT22;25866;52.420;10.640;2023-09-07T13:26:39;29.10;94.60
40151;DHT22;25866;52.420;10.640;2023-09-07T13:29:05;29.00;94.10
40151;DHT22;25866;52.420;10.640;2023-09-07T13:31:31;29.00;93.90
40151;DHT22;25866;52.420;10.640;2023-09-07T13:34:00;29.00;94.40
40151;DHT22;25866;52.420;10.640;2023-09-07T13:36:26;29.00;94.60
40151;DHT22;25866;52.420;10.640;2023-09-07T13:38:52;29.10;94.10
40151;DHT22;25866;52.420;10.640;2023-09-07T13:41:17;29.10;94.90
40151;DHT22;25866;52.420;10.640;2023-09-07T13:43:43;29.20;94.40
40151;DHT22;25866;52.420;10.640;2023-09-07T13:46:09;29.00;93.60
40151;DHT22;25866;52.420;10.640;2023-09-07T13:48:34;29.00;94.60
40151;DHT22;25866;52.420;10.640;2023-09-07T13:51:00;29.00;94.40
40151;DHT22;25866;52.420;10.640;2023-09-07T13:53:26;29.10;94.30
40151;DHT22;25866;52.420;10.640;2023-09-07T13:55:51;29.20;94.80
40151;DHT22;25866;52.420;10.640;2023-09-07T13:58:17;29.10;93.60
40151;DHT22;25866;52.420;10.640;2023-09-07T14:00:43;29.10;93.30
40151;DHT22;25866;52.420;10.640;2023-09-07T14:03:09;29.00;93.60
40151;DHT22;25866;52.420;10.640;2023-09-07T14:05:34;29.00;93.90
40151;DHT22;25866;52.420;10.640;2023-09-07T14:08:00;29.00;94.70
40151;DHT22;25866;52.420;10.640;2023-09-07T14:10:26;29.10;93.30
40151;DHT22;25866;52.420;10.640;2023-09-07T14:12:51;29.10;94.40
40151;DHT22;25866;52.420;10.640;2023-09-07T14:15:17;29.00;93.70
40151;DHT22;25866;52.420;10.640;2023-09-07T14:17:43;29.00;93.90
40151;DHT22;25866;52.420;10.640;2023-09-07T14:20:09;29.00;93.20
40151;DHT22;25866;52.420;10.640;2023-09-07T14:22:35;28.90;93.80
40151;DHT22;25866;52.420;10.640;2023-09-07T14:25:00;28.90;93.30
40151;DHT22;25866;52.420;10.640;2023-09-07T14:27:26;28.90;93.10
40151;DHT22;25866;52.420;10.640;2023-09-07T14:29:52;28.80;93.60
40151;DHT22;25866;52.420;10.640;2023-09-07T14:32:18;28.90;94.30
40151;DHT22;25866;52.420;10.640;2023-09-07T14:34:43;28.80;93.30
40151;DHT22;25866;52.420;10.640;2023-09-07T14:37:09;28.80;93.50
40151;DHT22;25866;52.420;10.640;2023-09-07T14:39:35;28.80;92.90
40151;DHT22;25866;52.420;10.640;2023-09-07T14:42:01;28.70;93.10
40151;DHT22;25866;52.420;10.640;2023-09-07T14:44:28;28.60;92.80
40151;DHT22;25866;52.420;10.640;2023-09-07T14:46:54;28.60;92.30
40151;DHT22;25866;52.420;10.640;2023-09-07T14:49:19;28.60;92.10
40151;DHT22;25866;52.420;10.640;2023-09-07T14:51:46;28.50;92.80
40151;DHT22;25866;52.420;10.640;2023-09-07T14:54:12;28.50;92.70
40151;DHT22;25866;52.420;10.640;2023-09-07T14:56:38;28.40;92.40
40151;DHT22;25866;52.420;10.640;2023-09-07T14:59:05;28.30;93.20
40151;DHT22;25866;52.420;10.640;2023-09-07T15:01:31;28.30;92.60
40151;DHT22;25866;52.420;10.640;2023-09-07T15:03:57;28.20;92.40
40151;DHT22;25866;52.420;10.640;2023-09-07T15:06:23;28.20;92.30
40151;DHT22;25866;52.420;10.640;2023-09-07T15:08:48;28.10;92.50
40151;DHT22;25866;52.420;10.640;2023-09-07T15:11:15;28.10;91.50
40151;DHT22;25866;52.420;10.640;2023-09-07T15:13:41;28.10;91.90